createdAt,value
2022-08-29T00:03:02.522Z,96165.66
2022-08-29T00:08:13.043Z,96181.38
2022-08-29T00:13:16.521Z,96160.28
2022-08-29T00:18:20.736Z,96140.28
2022-08-29T00:23:23.196Z,96170.25
2022-08-29T00:28:25.598Z,96160.72
2022-08-29T00:33:28.239Z,96154.22
2022-08-29T00:38:30.659Z,96151.44
2022-08-29T00:43:36.460Z,96171.72
2022-08-29T00:48:40.849Z,96146.56
2022-08-29T00:53:46.578Z,96145.00
2022-08-29T00:58:56.318Z,96169.16
2022-08-29T01:03:59.080Z,96130.63
2022-08-29T01:09:03.309Z,96147.13
2022-08-29T01:14:05.766Z,96144.16
2022-08-29T01:19:36.816Z,96137.91
2022-08-29T01:24:50.917Z,96141.84
2022-08-29T01:29:53.461Z,96123.72
2022-08-29T01:34:55.918Z,96165.44
2022-08-29T01:39:58.529Z,96132.13
2022-08-29T01:45:02.775Z,96136.72
2022-08-29T01:50:12.942Z,96155.09
2022-08-29T01:55:15.273Z,96137.53
2022-08-29T02:00:18.393Z,96144.25
2022-08-29T02:05:23.667Z,96175.31
2022-08-29T02:10:28.464Z,96146.28
2022-08-29T02:15:30.973Z,96141.38
2022-08-29T02:20:33.188Z,96133.69
2022-08-29T02:25:44.661Z,96173.53
2022-08-29T02:30:52.146Z,96154.34
2022-08-29T02:36:00.191Z,96165.00
2022-08-29T02:41:04.009Z,96150.13
2022-08-29T02:46:06.871Z,96120.50
2022-08-29T02:51:09.037Z,96137.75
2022-08-29T02:56:14.306Z,96155.91
2022-08-29T03:01:18.973Z,96151.66
2022-08-29T03:06:22.090Z,96189.22
2022-08-29T03:11:24.502Z,96159.31
2022-08-29T03:16:27.308Z,96139.63
2022-08-29T03:21:29.566Z,96163.28
2022-08-29T03:26:36.953Z,96171.84
2022-08-29T03:31:39.487Z,96159.38
2022-08-29T03:36:42.097Z,96156.03
2022-08-29T03:41:44.305Z,96188.31
2022-08-29T03:46:47.625Z,96192.50
2022-08-29T03:51:50.294Z,96174.97
2022-08-29T03:56:52.577Z,96173.78
2022-08-29T04:01:54.899Z,96184.44
2022-08-29T04:06:57.293Z,96209.03
2022-08-29T04:12:00.115Z,96221.50
2022-08-29T04:17:04.519Z,96208.03
2022-08-29T04:22:07.201Z,96201.06
2022-08-29T04:27:09.400Z,96194.16
2022-08-29T04:32:11.711Z,96216.59
2022-08-29T04:37:14.068Z,96199.28
2022-08-29T04:42:20.221Z,96229.66
2022-08-29T04:47:22.767Z,96234.28
2022-08-29T04:52:27.723Z,96239.59
2022-08-29T04:57:29.938Z,96245.44
2022-08-29T05:02:32.619Z,96240.16
2022-08-29T05:07:35.524Z,96236.78
2022-08-29T05:12:41.461Z,96231.94
2022-08-29T05:17:44.597Z,96216.97
2022-08-29T05:22:47.349Z,96227.44
2022-08-29T05:27:50.094Z,96224.72
2022-08-29T05:32:52.580Z,96202.31
2022-08-29T05:37:54.916Z,96185.44
2022-08-29T05:42:57.231Z,96198.66
2022-08-29T05:48:04.238Z,96194.19
2022-08-29T05:53:06.731Z,96179.94
2022-08-29T05:58:09.517Z,96167.69
2022-08-29T06:03:12.609Z,96188.69
2022-08-29T06:08:14.924Z,96188.50
2022-08-29T06:13:17.173Z,96192.28
2022-08-29T06:18:19.641Z,96181.00
2022-08-29T06:23:29.360Z,96172.50
2022-08-29T06:28:34.868Z,96176.47
2022-08-29T06:33:37.530Z,96179.09
2022-08-29T06:38:40.282Z,96172.81
2022-08-29T06:43:43.693Z,96186.69
2022-08-29T06:48:45.845Z,96179.59
2022-08-29T06:53:50.849Z,96171.59
2022-08-29T06:58:53.164Z,96197.09
2022-08-29T07:03:57.098Z,96193.50
2022-08-29T07:08:59.648Z,96174.47
2022-08-29T07:14:04.805Z,96207.34
2022-08-29T07:19:08.897Z,96216.03
2022-08-29T07:24:11.387Z,96213.19
2022-08-29T07:29:18.744Z,96185.44
2022-08-29T07:34:21.058Z,96161.28
2022-08-29T07:39:24.297Z,96169.59
2022-08-29T07:44:27.067Z,96180.13
2022-08-29T07:49:41.524Z,96183.97
2022-08-29T07:54:44.402Z,96165.91
2022-08-29T07:59:46.778Z,96158.88
2022-08-29T08:04:52.414Z,96156.06
2022-08-29T08:09:54.987Z,96167.75
2022-08-29T08:14:57.684Z,96171.00
2022-08-29T08:19:59.825Z,96156.22
2022-08-29T08:25:06.335Z,96138.69
2022-08-29T08:30:09.338Z,96149.53
2022-08-29T08:35:15.556Z,96147.56
2022-08-29T08:40:48.450Z,96175.09
2022-08-29T08:45:51.003Z,96150.84
2022-08-29T08:51:23.195Z,96171.38
2022-08-29T08:56:31.701Z,96175.81
2022-08-29T09:01:40.248Z,96150.75
2022-08-29T09:07:00.356Z,96169.75
2022-08-29T09:12:20.071Z,96159.84
2022-08-29T09:17:36.360Z,96155.59
2022-08-29T09:22:41.325Z,96158.25
2022-08-29T09:27:46.807Z,96132.63
2022-08-29T09:33:08.015Z,96146.47
2022-08-29T09:38:24.263Z,96155.78
2022-08-29T09:43:34.038Z,96152.50
2022-08-29T09:48:38.528Z,96145.94
2022-08-29T09:53:41.791Z,96149.75
2022-08-29T09:58:44.170Z,96140.44
2022-08-29T10:04:07.552Z,96147.56
2022-08-29T10:09:27.817Z,96139.28
2022-08-29T10:14:36.255Z,96149.75
2022-08-29T10:19:38.679Z,96139.03
2022-08-29T10:24:40.798Z,96156.25
2022-08-29T10:29:52.415Z,96142.84
2022-08-29T10:35:32.980Z,96140.06
2022-08-29T10:40:49.769Z,96137.09
2022-08-29T10:46:18.065Z,96122.56
2022-08-29T10:51:42.278Z,96112.09
2022-08-29T10:56:46.756Z,96124.16
2022-08-29T11:02:15.680Z,96114.03
2022-08-29T11:07:20.963Z,96118.06
2022-08-29T11:12:33.548Z,96115.53
2022-08-29T11:17:41.099Z,96117.31
2022-08-29T11:23:06.390Z,96101.06
2022-08-29T11:28:29.257Z,96086.31
2022-08-29T11:33:45.965Z,96083.75
2022-08-29T11:39:23.315Z,96090.34
2022-08-29T11:44:28.587Z,96090.38
2022-08-29T11:49:31.448Z,96106.41
2022-08-29T11:54:37.242Z,96094.19
2022-08-29T11:59:57.257Z,96108.72
2022-08-29T12:05:26.775Z,96092.19
2022-08-29T12:10:50.523Z,96100.94
2022-08-29T12:15:54.498Z,96099.72
2022-08-29T12:20:57.014Z,96094.88
2022-08-29T12:26:22.905Z,96072.25
2022-08-29T12:31:31.234Z,96107.56
2022-08-29T12:37:13.796Z,96122.19
2022-08-29T12:42:44.151Z,96121.03
2022-08-29T12:47:55.459Z,96114.84
2022-08-29T12:53:07.626Z,96108.94
2022-08-29T12:58:13.132Z,96111.41
2022-08-29T13:03:21.295Z,96094.59
2022-08-29T13:08:28.539Z,96105.53
2022-08-29T13:13:31.113Z,96091.69
2022-08-29T13:18:44.548Z,96100.63
2022-08-29T13:24:19.693Z,96118.56
2022-08-29T13:34:39.173Z,96110.16
2022-08-29T13:39:44.976Z,96084.88
2022-08-29T13:44:47.426Z,96090.72
2022-08-29T13:49:50.167Z,96076.25
2022-08-29T13:54:52.394Z,96052.63
2022-08-29T13:59:55.526Z,96067.75
2022-08-29T14:11:33.176Z,96042.66
2022-08-29T14:16:35.982Z,96034.47
2022-08-29T14:21:38.326Z,96046.00
2022-08-29T14:26:40.557Z,96036.72
2022-08-29T14:31:42.998Z,96017.66
2022-08-29T14:36:48.272Z,96034.81
2022-08-29T14:41:50.998Z,96027.09
2022-08-29T14:46:59.063Z,96022.53
2022-08-29T14:52:01.265Z,96027.09
2022-08-29T14:57:03.706Z,96031.91
2022-08-29T15:02:06.199Z,96038.38
2022-08-29T15:07:12.650Z,96023.88
2022-08-29T15:12:18.021Z,96041.59
2022-08-29T15:17:23.795Z,96034.31
2022-08-29T15:22:26.481Z,96029.97
2022-08-29T15:27:28.617Z,96050.53
2022-08-29T15:32:30.870Z,96034.81
2022-08-29T15:37:34.331Z,96038.09
2022-08-29T15:42:38.780Z,96043.91
2022-08-29T15:47:46.126Z,96039.13
2022-08-29T15:52:48.751Z,96039.88
2022-08-29T15:57:52.810Z,96040.25
2022-08-29T16:02:55.531Z,96022.34
2022-08-29T16:07:57.856Z,96014.81
2022-08-29T16:13:00.749Z,96031.19
2022-08-29T16:18:03.962Z,96030.59
2022-08-29T16:23:06.273Z,96031.22
2022-08-29T16:28:08.996Z,96053.78
2022-08-29T16:33:11.305Z,96056.56
2022-08-29T16:38:13.624Z,96049.19
2022-08-29T16:43:17.102Z,96062.03
2022-08-29T16:48:19.571Z,96054.06
2022-08-29T16:53:22.143Z,96069.19
2022-08-29T16:58:42.565Z,96070.63
2022-08-29T17:03:44.811Z,96068.72
2022-08-29T17:08:47.124Z,96066.75
2022-08-29T17:13:49.777Z,96077.47
2022-08-29T17:18:52.254Z,96055.22
2022-08-29T17:23:55.567Z,96100.31
2022-08-29T17:28:57.957Z,96082.44
2022-08-29T17:34:00.416Z,96123.53
2022-08-29T17:39:03.913Z,96127.84
2022-08-29T17:44:08.291Z,96129.84
2022-08-29T17:49:11.746Z,96134.50
2022-08-29T17:54:14.779Z,96135.41
2022-08-29T17:59:18.234Z,96149.56
2022-08-29T18:04:20.760Z,96167.00
2022-08-29T18:09:24.340Z,96180.50
2022-08-29T18:14:27.606Z,96166.31
2022-08-29T18:19:29.944Z,96178.69
2022-08-29T18:24:32.261Z,96173.88
2022-08-29T18:29:34.663Z,96175.81
2022-08-29T18:34:36.954Z,96183.72
2022-08-29T18:39:40.077Z,96189.88
2022-08-29T18:44:42.169Z,96195.63
2022-08-29T18:50:03.105Z,96189.50
2022-08-29T18:55:06.100Z,96200.53
2022-08-29T19:00:10.724Z,96190.53
2022-08-29T19:05:17.106Z,96194.69
2022-08-29T19:10:20.188Z,96203.34
2022-08-29T19:15:26.034Z,96214.22
2022-08-29T19:20:47.683Z,96211.19
2022-08-29T19:25:50.654Z,96209.44
2022-08-29T19:30:53.281Z,96213.59
2022-08-29T19:35:56.086Z,96210.22
2022-08-29T19:41:01.786Z,96215.56
2022-08-29T19:46:16.588Z,96201.97
2022-08-29T19:51:22.060Z,96224.56
2022-08-29T19:56:29.350Z,96230.63
2022-08-29T20:01:31.828Z,96207.09
2022-08-29T20:06:35.086Z,96241.13
2022-08-29T20:11:43.870Z,96216.72
2022-08-29T20:16:46.488Z,96244.66
2022-08-29T20:21:50.266Z,96245.09
2022-08-29T20:26:52.494Z,96240.41
2022-08-29T20:31:57.731Z,96246.94
2022-08-29T20:37:10.624Z,96252.56
2022-08-29T20:42:15.704Z,96251.03
2022-08-29T20:47:20.147Z,96238.13
2022-08-29T20:52:24.449Z,96244.31
2022-08-29T20:57:26.873Z,96242.94
2022-08-29T21:02:47.921Z,96232.91
2022-08-29T21:07:50.105Z,96243.56
2022-08-29T21:12:53.055Z,96231.19
2022-08-29T21:17:55.316Z,96237.06
2022-08-29T21:23:04.165Z,96244.78
2022-08-29T21:28:07.696Z,96246.94
2022-08-29T21:33:10.469Z,96257.50
2022-08-29T21:38:12.699Z,96261.44
2022-08-29T21:43:14.977Z,96257.81
2022-08-29T21:48:17.561Z,96240.78
2022-08-29T21:53:19.641Z,96259.25
2022-08-29T21:58:21.813Z,96266.81
2022-08-29T22:03:25.734Z,96270.19
2022-08-29T22:08:28.021Z,96259.31
2022-08-29T22:13:30.464Z,96259.81
2022-08-29T22:18:32.851Z,96263.38
2022-08-29T22:23:35.025Z,96252.72
2022-08-29T22:28:37.333Z,96262.50
2022-08-29T22:33:40.303Z,96250.56
2022-08-29T22:38:44.110Z,96245.81
2022-08-29T22:43:46.417Z,96252.00
2022-08-29T22:48:50.034Z,96232.50
2022-08-29T22:54:11.866Z,96232.22
2022-08-29T22:59:14.949Z,96240.19
2022-08-29T23:04:17.347Z,96248.66
2022-08-29T23:09:19.845Z,96240.41
2022-08-29T23:14:22.578Z,96239.16
2022-08-29T23:19:24.732Z,96220.25
2022-08-29T23:24:26.993Z,96228.28
2022-08-29T23:29:32.787Z,96241.00
2022-08-29T23:34:35.526Z,96215.94
2022-08-29T23:39:37.955Z,96236.19
2022-08-29T23:44:40.331Z,96214.59
2022-08-29T23:49:42.550Z,96225.50
2022-08-29T23:54:44.645Z,96215.72
